Time;durP1;ratioP1;P1;durP2;ratioP2;P2;SDS_P1;SDS_P2;PMS_P1;PMS_P2;Temp;Humidity;BMP_temperature;BMP_pressure;BME280_temperature;BME280_humidity;BME280_pressure;Samples;Min_cycle;Max_cycle;Signal;HPM_P1;HPM_P2
2023/09/19 00:00:47;;;;;;;4.87;1.20;;;20.00;76.20;;;;;;5091908;28;20476;-78
2023/09/19 00:03:16;;;;;;;3.90;1.10;;;20.00;76.20;;;;;;5108172;28;20455;-78
2023/09/19 00:05:44;;;;;;;4.00;1.00;;;20.00;76.20;;;;;;5087785;28;20460;-79
2023/09/19 00:08:15;;;;;;;5.20;1.27;;;20.00;76.30;;;;;;5108920;28;20538;-79
2023/09/19 00:10:44;;;;;;;8.20;1.10;;;20.00;76.30;;;;;;5108356;28;20460;-79
2023/09/19 00:13:14;;;;;;;5.93;1.40;;;20.00;76.30;;;;;;5101506;28;20457;-78
2023/09/19 00:15:48;;;;;;;4.90;1.10;;;19.90;76.40;;;;;;5104489;28;20451;-78
2023/09/19 00:18:20;;;;;;;4.90;1.23;;;19.90;76.50;;;;;;5103253;28;20490;-79
2023/09/19 00:20:48;;;;;;;4.70;1.50;;;19.90;76.50;;;;;;5091762;28;21002;-78
2023/09/19 00:23:16;;;;;;;4.57;1.10;;;19.90;76.50;;;;;;5084904;28;20834;-78
2023/09/19 00:25:45;;;;;;;4.10;1.07;;;19.90;76.50;;;;;;5107844;28;20555;-78
2023/09/19 00:28:16;;;;;;;5.27;1.70;;;19.90;76.60;;;;;;5103790;28;21029;-78
2023/09/19 00:30:46;;;;;;;4.27;1.10;;;19.90;76.70;;;;;;5108179;28;20483;-78
2023/09/19 00:33:16;;;;;;;5.50;1.30;;;19.90;76.70;;;;;;5107334;28;20448;-79
2023/09/19 00:35:48;;;;;;;6.43;1.50;;;19.90;76.70;;;;;;5090398;28;21045;-78
2023/09/19 00:38:17;;;;;;;4.53;1.37;;;19.90;76.80;;;;;;5104005;28;20472;-78
2023/09/19 00:40:48;;;;;;;5.00;1.60;;;19.90;76.80;;;;;;5100752;28;20455;-78
2023/09/19 00:43:17;;;;;;;5.90;1.20;;;20.00;76.80;;;;;;5110130;28;20464;-80
2023/09/19 00:45:49;;;;;;;4.33;1.50;;;20.00;76.80;;;;;;5107216;28;20807;-79
2023/09/19 00:48:19;;;;;;;5.20;1.50;;;19.90;76.80;;;;;;5106292;28;20455;-78
2023/09/19 00:50:49;;;;;;;4.30;1.50;;;19.90;76.90;;;;;;5087354;28;20529;-79
2023/09/19 00:53:21;;;;;;;6.73;1.20;;;19.90;76.90;;;;;;5090156;28;20463;-78
2023/09/19 00:55:50;;;;;;;5.80;1.57;;;19.90;76.90;;;;;;5103955;28;20547;-79
2023/09/19 00:58:20;;;;;;;6.67;1.23;;;20.00;77.00;;;;;;5084018;28;20808;-79
2023/09/19 01:00:49;;;;;;;5.07;1.40;;;20.00;76.90;;;;;;5084494;28;20813;-78
2023/09/19 01:03:19;;;;;;;7.43;1.73;;;20.00;76.90;;;;;;5086532;28;20560;-78
2023/09/19 01:05:47;;;;;;;4.20;1.10;;;20.00;76.90;;;;;;5101330;27;20460;-79
2023/09/19 01:08:15;;;;;;;4.83;1.33;;;19.90;76.90;;;;;;5087686;28;20440;-78
2023/09/19 01:10:52;;;;;;;5.57;1.67;;;19.90;77.00;;;;;;5101260;28;20459;-79
2023/09/19 01:13:30;;;;;;;3.90;1.10;;;19.90;77.00;;;;;;5102172;28;20464;-78
2023/09/19 01:16:11;;;;;;;6.50;1.70;;;19.80;77.10;;;;;;5086348;28;20482;-78
2023/09/19 01:18:50;;;;;;;6.57;1.53;;;19.80;77.20;;;;;;5103931;28;20464;-77
2023/09/19 01:21:28;;;;;;;6.00;1.80;;;19.80;77.30;;;;;;5106689;28;20483;-77
2023/09/19 01:24:36;;;;;;;4.70;1.20;;;19.80;77.30;;;;;;5106850;28;20507;-78
2023/09/19 01:27:31;;;;;;;8.83;2.00;;;19.80;77.40;;;;;;5106349;28;22584;-79
2023/09/19 01:30:11;;;;;;;5.20;1.43;;;19.80;77.40;;;;;;5102952;28;20543;-78
2023/09/19 01:32:41;;;;;;;4.33;1.20;;;19.80;77.50;;;;;;5101003;28;20499;-78
2023/09/19 01:35:13;;;;;;;6.17;1.90;;;19.80;77.50;;;;;;5104146;28;20551;-78
2023/09/19 01:37:42;;;;;;;5.37;1.77;;;19.80;77.60;;;;;;5088872;28;20467;-77
2023/09/19 01:40:16;;;;;;;5.10;1.67;;;19.80;77.60;;;;;;5105177;28;21088;-79
2023/09/19 01:42:51;;;;;;;5.43;1.60;;;19.80;77.60;;;;;;5102511;28;20460;-79
2023/09/19 01:45:31;;;;;;;7.87;1.70;;;19.80;77.70;;;;;;5091507;28;20542;-79
2023/09/19 01:48:11;;;;;;;6.40;1.80;;;19.70;77.80;;;;;;5092128;28;20478;-79
2023/09/19 01:50:45;;;;;;;8.37;1.50;;;19.80;77.90;;;;;;5105841;28;20463;-78
2023/09/19 01:53:22;;;;;;;6.03;1.70;;;19.80;78.00;;;;;;5086359;28;20515;-79
2023/09/19 01:55:52;;;;;;;9.60;2.00;;;19.70;78.00;;;;;;5099751;28;20954;-78
2023/09/19 01:58:28;;;;;;;5.93;1.90;;;19.80;78.10;;;;;;5099078;28;20457;-79
2023/09/19 02:01:00;;;;;;;6.90;1.70;;;19.80;78.10;;;;;;5088357;28;20486;-78
2023/09/19 02:03:30;;;;;;;6.00;2.00;;;19.80;78.20;;;;;;5086994;28;20515;-78
2023/09/19 02:05:58;;;;;;;5.00;1.93;;;19.80;78.20;;;;;;5089752;28;21184;-79
2023/09/19 02:08:27;;;;;;;5.93;1.77;;;19.80;78.30;;;;;;5104949;28;20465;-78
2023/09/19 02:10:55;;;;;;;4.70;1.80;;;19.80;78.30;;;;;;5102616;28;20826;-80
2023/09/19 02:13:26;;;;;;;5.37;1.70;;;19.80;78.40;;;;;;5084559;28;20591;-78
2023/09/19 02:15:54;;;;;;;8.40;2.50;;;19.80;78.40;;;;;;5105636;28;20521;-78
2023/09/19 02:18:24;;;;;;;7.80;1.90;;;19.80;78.40;;;;;;5102507;28;20463;-78
2023/09/19 02:20:54;;;;;;;5.83;2.40;;;19.80;78.50;;;;;;5084853;28;20524;-78
2023/09/19 02:23:22;;;;;;;6.47;2.10;;;19.80;78.50;;;;;;5105389;28;20542;-77
2023/09/19 02:25:53;;;;;;;4.60;1.67;;;19.80;78.50;;;;;;5107441;28;20539;-79
2023/09/19 02:28:23;;;;;;;7.43;2.37;;;19.80;78.60;;;;;;5106737;28;20444;-78
2023/09/19 02:30:51;;;;;;;6.23;2.17;;;19.80;78.60;;;;;;5103272;28;20495;-79
2023/09/19 02:33:19;;;;;;;6.27;2.00;;;19.90;78.60;;;;;;5088732;28;20977;-79
2023/09/19 02:35:48;;;;;;;7.57;2.23;;;19.90;78.70;;;;;;5086285;28;20551;-79
2023/09/19 02:38:24;;;;;;;6.00;2.07;;;19.80;78.70;;;;;;5090634;28;20463;-78
2023/09/19 02:40:52;;;;;;;5.47;2.20;;;19.80;78.80;;;;;;5088108;28;20556;-78
2023/09/19 02:43:21;;;;;;;10.43;2.37;;;19.80;79.00;;;;;;5096078;28;20455;-78
2023/09/19 02:45:49;;;;;;;5.40;2.27;;;19.80;79.00;;;;;;5092668;28;21002;-77
2023/09/19 02:48:18;;;;;;;7.87;2.77;;;19.80;79.10;;;;;;5092782;28;20455;-79
2023/09/19 02:50:50;;;;;;;5.90;2.40;;;19.90;79.20;;;;;;5112906;28;20535;-79
2023/09/19 02:53:18;;;;;;;4.90;1.90;;;19.80;79.30;;;;;;5094002;28;20452;-79
2023/09/19 02:55:48;;;;;;;6.60;2.73;;;19.80;79.50;;;;;;5108270;28;20509;-79
2023/09/19 02:58:18;;;;;;;6.83;2.93;;;19.80;79.60;;;;;;5109092;28;20444;-79
2023/09/19 03:00:47;;;;;;;6.70;2.50;;;19.80;79.80;;;;;;5089485;28;20475;-79
2023/09/19 03:03:16;;;;;;;6.30;2.70;;;19.80;79.80;;;;;;5090867;28;20492;-80
2023/09/19 03:05:46;;;;;;;4.90;2.00;;;19.80;79.90;;;;;;5100977;28;20458;-81
2023/09/19 03:08:17;;;;;;;5.70;2.40;;;19.80;80.00;;;;;;5088468;28;20468;-79
2023/09/19 03:10:48;;;;;;;6.80;2.70;;;19.80;80.10;;;;;;5090700;28;20475;-78
2023/09/19 03:13:17;;;;;;;12.43;2.87;;;19.90;80.10;;;;;;5103759;28;20460;-79
2023/09/19 03:15:46;;;;;;;8.23;3.00;;;19.80;80.10;;;;;;5090606;28;20657;-79
2023/09/19 03:18:16;;;;;;;8.43;2.90;;;19.80;80.30;;;;;;5106792;28;20552;-78
2023/09/19 03:20:45;;;;;;;6.40;2.87;;;19.80;80.30;;;;;;5107586;28;20906;-76
2023/09/19 03:23:13;;;;;;;8.03;2.87;;;19.80;80.30;;;;;;5089064;28;20456;-77
2023/09/19 03:25:42;;;;;;;7.23;2.83;;;19.80;80.50;;;;;;5106220;28;21025;-80
2023/09/19 03:28:10;;;;;;;8.67;3.33;;;19.80;80.60;;;;;;5105529;28;20460;-79
2023/09/19 03:30:40;;;;;;;7.60;2.33;;;19.80;80.60;;;;;;5108628;28;20468;-79
2023/09/19 03:33:11;;;;;;;6.30;2.83;;;19.70;80.70;;;;;;5088631;28;20448;-79
2023/09/19 03:35:40;;;;;;;5.90;2.33;;;19.70;80.80;;;;;;5091186;28;20465;-81
2023/09/19 03:38:10;;;;;;;8.80;2.83;;;19.70;80.90;;;;;;5106627;28;20542;-79
2023/09/19 03:40:38;;;;;;;5.07;2.70;;;19.70;80.90;;;;;;5107391;28;20484;-78
2023/09/19 03:43:07;;;;;;;9.20;2.70;;;19.60;80.90;;;;;;5107300;28;20470;-79
2023/09/19 03:45:36;;;;;;;5.63;2.37;;;19.50;81.10;;;;;;5090731;28;20521;-80
2023/09/19 03:48:09;;;;;;;6.40;2.30;;;19.50;81.20;;;;;;5088263;28;20539;-80
2023/09/19 03:50:37;;;;;;;7.50;2.07;;;19.40;81.50;;;;;;5107143;28;20509;-79
2023/09/19 03:53:07;;;;;;;5.87;2.27;;;19.40;81.50;;;;;;5093647;28;20450;-79
2023/09/19 03:55:35;;;;;;;6.50;2.53;;;19.40;81.60;;;;;;5109277;28;20448;-78
2023/09/19 03:58:04;;;;;;;5.83;1.97;;;19.40;81.50;;;;;;5093077;28;20456;-78
2023/09/19 04:00:34;;;;;;;6.20;2.30;;;19.40;81.50;;;;;;5093179;28;20483;-79
2023/09/19 04:03:07;;;;;;;5.70;2.20;;;19.40;81.50;;;;;;5119753;28;20543;-78
2023/09/19 04:05:37;;;;;;;6.50;2.47;;;19.40;81.60;;;;;;5091584;28;20468;-78
2023/09/19 04:08:05;;;;;;;6.00;2.13;;;19.40;81.50;;;;;;5104730;28;20456;-78
2023/09/19 04:10:33;;;;;;;6.27;2.70;;;19.30;81.50;;;;;;5088421;28;20501;-78
2023/09/19 04:13:01;;;;;;;5.30;2.40;;;19.30;81.60;;;;;;5087555;28;20962;-79
2023/09/19 04:15:29;;;;;;;5.70;2.13;;;19.30;81.60;;;;;;5090674;28;20532;-78
2023/09/19 04:17:59;;;;;;;6.10;2.70;;;19.20;81.60;;;;;;5089779;28;20487;-79
2023/09/19 04:20:28;;;;;;;7.20;2.60;;;19.20;81.70;;;;;;5089084;28;20474;-78
2023/09/19 04:22:57;;;;;;;6.30;2.40;;;19.20;81.70;;;;;;5090818;28;20524;-78
2023/09/19 04:25:27;;;;;;;4.93;2.20;;;19.20;81.70;;;;;;5108169;28;20460;-79
2023/09/19 04:27:56;;;;;;;5.23;2.40;;;19.10;81.70;;;;;;5105883;27;20461;-79
2023/09/19 04:30:24;;;;;;;7.87;2.13;;;19.10;81.70;;;;;;5088554;28;20877;-79
2023/09/19 04:32:53;;;;;;;7.20;2.47;;;19.10;81.70;;;;;;5090218;28;20464;-80
2023/09/19 04:35:22;;;;;;;17.03;3.30;;;19.10;81.70;;;;;;5088129;28;20823;-80
2023/09/19 04:37:52;;;;;;;6.83;2.00;;;19.20;81.70;;;;;;5105114;28;20462;-79
2023/09/19 04:40:20;;;;;;;5.47;2.37;;;19.10;81.70;;;;;;5101456;28;20502;-79
2023/09/19 04:42:56;;;;;;;11.70;2.33;;;19.10;81.70;;;;;;5103272;28;20537;-80
2023/09/19 04:45:24;;;;;;;5.30;1.90;;;19.10;81.70;;;;;;5102597;28;20455;-80
2023/09/19 04:47:53;;;;;;;5.10;2.33;;;19.10;81.60;;;;;;5101788;28;20448;-80
2023/09/19 04:50:26;;;;;;;4.90;2.10;;;19.10;81.60;;;;;;5105032;28;20440;-80
2023/09/19 04:52:54;;;;;;;4.70;2.20;;;19.10;81.50;;;;;;5105356;28;20460;-78
2023/09/19 04:55:22;;;;;;;6.40;2.33;;;19.10;81.60;;;;;;5105463;28;20970;-79
2023/09/19 04:57:52;;;;;;;4.93;2.43;;;19.10;81.60;;;;;;5087666;28;20456;-78
2023/09/19 05:00:24;;;;;;;6.47;2.70;;;19.10;81.50;;;;;;5088017;28;20570;-80
2023/09/19 05:02:53;;;;;;;5.83;2.47;;;19.00;81.50;;;;;;5089570;28;20551;-79
2023/09/19 05:05:25;;;;;;;7.67;2.80;;;19.00;81.50;;;;;;5102886;28;20459;-80
2023/09/19 05:07:55;;;;;;;6.90;2.77;;;19.00;81.50;;;;;;5106663;28;20865;-80
2023/09/19 05:10:24;;;;;;;6.93;2.60;;;18.90;81.50;;;;;;5105265;28;20451;-78
2023/09/19 05:12:54;;;;;;;5.97;2.73;;;18.90;81.60;;;;;;5106620;28;20452;-78
2023/09/19 05:15:22;;;;;;;4.97;2.50;;;18.90;81.60;;;;;;5107839;28;20460;-80
2023/09/19 05:17:56;;;;;;;5.10;2.47;;;19.00;81.70;;;;;;5089540;28;20823;-80
2023/09/19 05:20:32;;;;;;;5.83;2.60;;;19.00;81.60;;;;;;5103097;28;20452;-79
2023/09/19 05:23:01;;;;;;;5.70;2.83;;;19.00;81.60;;;;;;5089140;28;20459;-79
2023/09/19 05:25:30;;;;;;;8.63;3.07;;;19.00;81.50;;;;;;5089236;28;20468;-80
2023/09/19 05:27:59;;;;;;;5.17;2.43;;;19.00;81.60;;;;;;5102837;28;20452;-80
2023/09/19 05:30:29;;;;;;;5.20;2.90;;;19.00;81.50;;;;;;5104039;28;20540;-79
2023/09/19 05:32:57;;;;;;;11.73;3.00;;;19.00;81.50;;;;;;5104619;28;20539;-79
2023/09/19 05:35:26;;;;;;;8.70;3.17;;;19.00;81.50;;;;;;5089840;28;20450;-80
2023/09/19 05:37:55;;;;;;;6.17;2.63;;;19.00;81.50;;;;;;5104907;28;20440;-79
2023/09/19 05:40:24;;;;;;;8.90;3.20;;;19.10;81.60;;;;;;5104734;28;21038;-80
2023/09/19 05:42:52;;;;;;;8.07;3.13;;;19.10;81.60;;;;;;5105923;28;20521;-80
2023/09/19 05:45:22;;;;;;;8.13;3.80;;;19.10;81.60;;;;;;5105488;28;21021;-79
2023/09/19 05:47:50;;;;;;;10.43;2.87;;;19.10;81.60;;;;;;5103311;28;20452;-80
2023/09/19 05:50:19;;;;;;;6.50;3.10;;;19.10;81.50;;;;;;5085502;28;20520;-81
2023/09/19 05:52:55;;;;;;;8.20;3.23;;;19.10;81.50;;;;;;5087592;28;20492;-78
2023/09/19 05:55:24;;;;;;;7.77;3.70;;;19.20;81.40;;;;;;5102103;28;20463;-80
2023/09/19 05:57:53;;;;;;;6.97;3.73;;;19.20;81.30;;;;;;5099254;28;20512;-80
2023/09/19 06:00:22;;;;;;;6.33;3.60;;;19.20;81.30;;;;;;5105610;28;20464;-80
2023/09/19 06:02:53;;;;;;;6.60;3.60;;;19.20;81.20;;;;;;5103722;28;20472;-80
2023/09/19 06:05:22;;;;;;;8.03;3.60;;;19.20;81.20;;;;;;5103042;28;20559;-80
2023/09/19 06:07:50;;;;;;;10.43;3.57;;;19.20;81.20;;;;;;5089273;28;20555;-81
2023/09/19 06:10:22;;;;;;;6.37;3.40;;;19.30;81.10;;;;;;5088652;28;20495;-81
2023/09/19 06:12:51;;;;;;;8.23;3.60;;;19.30;81.00;;;;;;5106322;28;20459;-78
2023/09/19 06:15:21;;;;;;;7.93;3.67;;;19.30;81.00;;;;;;5105638;28;20455;-81
2023/09/19 06:17:50;;;;;;;6.50;3.73;;;19.30;80.90;;;;;;5103602;28;20447;-80
2023/09/19 06:20:19;;;;;;;5.90;3.40;;;19.30;80.90;;;;;;5104686;28;20524;-81
2023/09/19 06:22:49;;;;;;;8.33;4.03;;;19.30;80.80;;;;;;5112087;28;20470;-81
2023/09/19 06:25:19;;;;;;;6.57;4.30;;;19.30;80.80;;;;;;5110292;28;21193;-79
2023/09/19 06:27:52;;;;;;;7.07;4.00;;;19.30;80.70;;;;;;5110804;28;20460;-81
2023/09/19 06:30:21;;;;;;;7.70;4.10;;;19.30;80.70;;;;;;5109334;28;20861;-80
2023/09/19 06:32:49;;;;;;;6.13;3.80;;;19.30;80.80;;;;;;5112937;28;20443;-81
2023/09/19 06:35:18;;;;;;;9.57;4.47;;;19.20;80.70;;;;;;5108331;28;20981;-80
2023/09/19 06:37:46;;;;;;;6.63;3.90;;;19.20;80.80;;;;;;5110980;28;20538;-81
2023/09/19 06:40:15;;;;;;;9.67;3.83;;;19.20;80.70;;;;;;5108848;28;20482;-78
2023/09/19 06:42:45;;;;;;;7.53;3.90;;;19.20;80.70;;;;;;5093700;28;20499;-79
2023/09/19 06:45:18;;;;;;;9.63;3.67;;;19.20;80.60;;;;;;5107335;28;20452;-80
2023/09/19 06:47:49;;;;;;;10.93;4.40;;;19.20;80.50;;;;;;5112440;28;20487;-80
2023/09/19 06:50:19;;;;;;;8.30;3.63;;;19.20;80.50;;;;;;5106322;28;20478;-79
2023/09/19 06:52:49;;;;;;;7.60;4.03;;;19.20;80.50;;;;;;5108587;28;20942;-82
2023/09/19 06:55:19;;;;;;;7.67;3.70;;;19.20;80.50;;;;;;5105700;28;20595;-79
2023/09/19 06:57:48;;;;;;;6.90;3.47;;;19.20;80.40;;;;;;5107275;28;20458;-81
2023/09/19 07:00:19;;;;;;;8.63;3.90;;;19.30;80.30;;;;;;5113253;28;20512;-80
2023/09/19 07:02:56;;;;;;;9.50;3.80;;;19.30;80.20;;;;;;5111158;28;21123;-80
2023/09/19 07:05:24;;;;;;;8.30;3.87;;;19.40;80.10;;;;;;5102503;28;20447;-79
2023/09/19 07:07:54;;;;;;;7.10;3.37;;;19.40;80.00;;;;;;5109746;28;20505;-80
2023/09/19 07:10:23;;;;;;;6.90;3.53;;;19.40;79.90;;;;;;5089833;28;20967;-79
2023/09/19 07:12:57;;;;;;;6.50;3.47;;;19.40;79.80;;;;;;5109731;28;20460;-79
2023/09/19 07:15:26;;;;;;;8.23;3.70;;;19.50;79.60;;;;;;5105289;28;20510;-80
2023/09/19 07:17:56;;;;;;;8.70;4.30;;;19.50;79.60;;;;;;5110245;28;20499;-79
2023/09/19 07:20:26;;;;;;;5.77;2.90;;;19.50;79.50;;;;;;5108633;28;20501;-81
2023/09/19 07:22:55;;;;;;;8.43;4.23;;;19.50;79.40;;;;;;5104005;28;20472;-81
2023/09/19 07:25:24;;;;;;;7.93;3.90;;;19.50;79.30;;;;;;5102693;28;20448;-81
2023/09/19 07:27:52;;;;;;;8.73;3.70;;;19.50;79.20;;;;;;5105925;28;20482;-80
2023/09/19 07:30:23;;;;;;;7.60;3.20;;;19.60;79.20;;;;;;5090987;28;20453;-80
2023/09/19 07:32:52;;;;;;;9.83;4.13;;;19.60;79.20;;;;;;5109317;28;20957;-80
2023/09/19 07:35:21;;;;;;;6.10;3.30;;;19.60;79.10;;;;;;5107683;28;20495;-80
2023/09/19 07:37:51;;;;;;;6.47;3.70;;;19.60;79.10;;;;;;5108714;28;20464;-80
2023/09/19 07:40:20;;;;;;;8.00;3.17;;;19.70;79.00;;;;;;5108281;28;20545;-80
2023/09/19 07:42:50;;;;;;;8.30;4.13;;;19.70;78.80;;;;;;5106532;28;20986;-81
2023/09/19 07:45:18;;;;;;;8.33;3.30;;;19.70;78.70;;;;;;5111249;28;20476;-78
2023/09/19 07:47:47;;;;;;;8.40;3.57;;;19.70;78.70;;;;;;5115604;28;20460;-81
2023/09/19 07:50:18;;;;;;;9.93;4.20;;;19.70;78.50;;;;;;5111179;28;20439;-80
2023/09/19 07:52:46;;;;;;;6.83;2.80;;;19.70;78.40;;;;;;5109293;28;20451;-81
2023/09/19 07:55:16;;;;;;;13.37;3.40;;;19.70;78.30;;;;;;5091528;28;20456;-81
2023/09/19 07:57:45;;;;;;;6.60;3.20;;;19.70;78.20;;;;;;5105824;28;20455;-81
2023/09/19 08:00:14;;;;;;;8.73;3.43;;;19.70;78.20;;;;;;5106107;28;20539;-80
2023/09/19 08:02:43;;;;;;;7.83;3.53;;;19.70;78.20;;;;;;5090015;28;20514;-81
2023/09/19 08:05:15;;;;;;;11.40;4.03;;;19.70;78.10;;;;;;5091935;28;20973;-80
2023/09/19 08:07:48;;;;;;;8.47;3.43;;;19.60;78.00;;;;;;5102321;28;20461;-80
2023/09/19 08:10:19;;;;;;;7.43;2.90;;;19.60;78.00;;;;;;5090942;28;21035;-80
2023/09/19 08:12:48;;;;;;;10.40;2.93;;;19.70;78.00;;;;;;5104193;28;20484;-79
2023/09/19 08:15:19;;;;;;;8.27;2.63;;;19.70;78.00;;;;;;5088551;28;20448;-78
2023/09/19 08:17:49;;;;;;;14.13;3.13;;;19.70;77.90;;;;;;5105757;28;20463;-78
2023/09/19 08:20:18;;;;;;;9.47;3.37;;;19.70;77.70;;;;;;5107649;28;20451;-79
2023/09/19 08:22:52;;;;;;;8.50;3.00;;;19.80;77.60;;;;;;5110494;28;21005;-79
2023/09/19 08:25:21;;;;;;;7.43;2.60;;;19.80;77.60;;;;;;5106086;27;20456;-80
2023/09/19 08:27:50;;;;;;;7.80;2.60;;;19.90;77.60;;;;;;5105164;28;20509;-79
2023/09/19 08:30:23;;;;;;;8.93;2.60;;;19.90;77.40;;;;;;5107139;28;20452;-80
2023/09/19 08:32:58;;;;;;;8.77;2.93;;;20.00;77.30;;;;;;5110305;28;20446;-80
2023/09/19 08:35:26;;;;;;;8.47;2.40;;;20.00;77.10;;;;;;5108171;28;20474;-79
2023/09/19 08:37:56;;;;;;;10.27;2.40;;;20.00;77.10;;;;;;5091208;28;20938;-80
2023/09/19 08:40:29;;;;;;;5.83;2.03;;;20.10;76.80;;;;;;5107354;28;20482;-79
2023/09/19 08:42:58;;;;;;;9.47;2.30;;;20.10;76.60;;;;;;5105366;28;20667;-79
2023/09/19 08:45:28;;;;;;;6.73;2.47;;;20.10;76.50;;;;;;5107031;28;20964;-80
2023/09/19 08:48:07;;;;;;;6.87;2.20;;;20.10;76.40;;;;;;5105817;28;20452;-82
2023/09/19 08:50:43;;;;;;;6.10;1.97;;;20.00;76.00;;;;;;5104285;28;20455;-81
2023/09/19 08:53:20;;;;;;;6.97;2.23;;;20.00;75.80;;;;;;5090213;28;21340;-81
2023/09/19 08:55:53;;;;;;;7.50;1.97;;;20.00;75.60;;;;;;5106776;28;20538;-79
2023/09/19 08:58:24;;;;;;;8.60;1.80;;;20.00;75.20;;;;;;5105122;28;20828;-79
2023/09/19 09:00:55;;;;;;;8.20;2.40;;;20.00;75.20;;;;;;5104655;28;21280;-80
2023/09/19 09:03:24;;;;;;;5.27;1.97;;;20.00;75.10;;;;;;5105417;28;20486;-79
2023/09/19 09:05:52;;;;;;;6.27;2.40;;;20.00;74.80;;;;;;5106673;28;20483;-79
2023/09/19 09:08:22;;;;;;;8.70;2.20;;;20.10;74.80;;;;;;5108390;28;20458;-81
2023/09/19 09:10:51;;;;;;;5.23;1.97;;;20.10;74.70;;;;;;5090645;28;20570;-80
2023/09/19 09:13:21;;;;;;;8.80;2.37;;;20.10;74.50;;;;;;5105097;28;20459;-80
2023/09/19 09:15:50;;;;;;;6.33;2.00;;;20.10;74.30;;;;;;5107696;28;20856;-81
2023/09/19 09:18:18;;;;;;;5.50;2.50;;;20.10;74.00;;;;;;5103688;28;20451;-81
2023/09/19 09:20:47;;;;;;;6.60;2.50;;;20.10;73.90;;;;;;5108716;28;20460;-80
2023/09/19 09:23:15;;;;;;;5.37;2.27;;;20.10;73.80;;;;;;5087800;28;20558;-81
2023/09/19 09:25:56;;;;;;;10.40;2.57;;;20.10;73.80;;;;;;5107175;28;20510;-79
2023/09/19 09:28:26;;;;;;;10.20;2.93;;;20.10;73.80;;;;;;5087291;28;20455;-81
2023/09/19 09:30:56;;;;;;;8.57;2.80;;;20.10;73.80;;;;;;5103741;28;20485;-80
2023/09/19 09:33:24;;;;;;;5.30;2.07;;;20.20;73.80;;;;;;5107610;28;20444;-81
2023/09/19 09:35:56;;;;;;;6.13;2.27;;;20.20;73.50;;;;;;5086998;28;20479;-81
2023/09/19 09:38:27;;;;;;;7.70;2.67;;;20.30;73.30;;;;;;5107678;28;20458;-78
2023/09/19 09:41:03;;;;;;;6.10;2.27;;;20.30;73.20;;;;;;5105471;28;20448;-79
2023/09/19 09:43:36;;;;;;;7.10;2.67;;;20.20;72.90;;;;;;5081775;28;20567;-78
2023/09/19 09:52:07;;;;;;;5.93;2.70;;;20.20;72.50;;;;;;5095988;28;20526;-79
2023/09/19 09:54:38;;;;;;;6.77;3.10;;;20.20;72.20;;;;;;5109874;28;20452;-80
2023/09/19 09:57:17;;;;;;;6.47;2.63;;;20.20;72.00;;;;;;5114534;28;20447;-79
2023/09/19 09:59:47;;;;;;;7.67;2.80;;;20.20;71.80;;;;;;5108124;27;20451;-80
2023/09/19 10:02:20;;;;;;;9.10;2.90;;;20.20;71.70;;;;;;5093761;28;20574;-78
2023/09/19 10:05:13;;;;;;;6.53;3.07;;;20.20;71.50;;;;;;5094856;28;20479;-77
2023/09/19 10:07:49;;;;;;;7.10;2.50;;;20.20;71.30;;;;;;5113036;28;20873;-78
2023/09/19 10:10:38;;;;;;;8.10;2.23;;;20.20;70.70;;;;;;5095425;28;20980;-78
2023/09/19 10:13:12;;;;;;;7.30;2.50;;;20.20;70.40;;;;;;5096430;28;20440;-79
2023/09/19 10:15:42;;;;;;;8.57;2.90;;;20.20;70.40;;;;;;5115057;28;20444;-79
2023/09/19 10:18:17;;;;;;;8.00;2.70;;;20.20;70.10;;;;;;5108630;28;20459;-79
2023/09/19 10:20:48;;;;;;;8.53;2.73;;;20.10;70.00;;;;;;5107860;28;20455;-79
2023/09/19 10:23:22;;;;;;;6.70;2.83;;;20.20;70.10;;;;;;5112476;28;21141;-77
2023/09/19 10:25:51;;;;;;;6.30;2.43;;;20.10;70.00;;;;;;5114771;28;20477;-79
2023/09/19 10:28:28;;;;;;;6.30;2.37;;;20.20;70.00;;;;;;5110155;28;20447;-79
2023/09/19 10:30:58;;;;;;;5.50;2.60;;;20.20;69.70;;;;;;5114403;28;20525;-79
2023/09/19 10:33:26;;;;;;;6.80;3.13;;;20.10;69.70;;;;;;5114820;28;22655;-79
2023/09/19 10:35:56;;;;;;;6.30;2.27;;;20.10;69.60;;;;;;5111876;28;20790;-78
2023/09/19 10:38:26;;;;;;;7.10;2.73;;;20.20;69.70;;;;;;5114839;28;20489;-79
2023/09/19 10:40:59;;;;;;;7.77;2.60;;;20.20;69.40;;;;;;5105313;28;20456;-79
2023/09/19 10:43:33;;;;;;;5.30;2.30;;;20.20;69.40;;;;;;5110971;28;20483;-78
2023/09/19 10:46:09;;;;;;;5.83;2.50;;;20.30;69.20;;;;;;5108313;28;21361;-79
2023/09/19 10:48:38;;;;;;;7.80;2.83;;;20.30;69.00;;;;;;5108787;28;20462;-79
2023/09/19 10:51:10;;;;;;;7.90;2.70;;;20.30;68.90;;;;;;5105618;28;20574;-79
2023/09/19 10:53:48;;;;;;;6.73;2.57;;;20.30;68.70;;;;;;5110255;28;20444;-79
2023/09/19 10:56:24;;;;;;;6.60;2.90;;;20.30;68.50;;;;;;5111951;28;20508;-78
2023/09/19 10:59:06;;;;;;;10.97;2.87;;;20.30;68.50;;;;;;5099338;28;20481;-79
2023/09/19 11:01:47;;;;;;;12.77;2.63;;;20.40;68.40;;;;;;5115279;28;21442;-79
2023/09/19 11:04:27;;;;;;;6.00;2.80;;;20.40;68.50;;;;;;5104712;28;20973;-78
2023/09/19 11:07:04;;;;;;;6.90;2.90;;;20.40;68.50;;;;;;5106473;28;20451;-79
2023/09/19 11:09:50;;;;;;;7.43;2.53;;;20.40;68.50;;;;;;5095911;28;20466;-79
2023/09/19 11:12:49;;;;;;;6.67;3.00;;;20.50;68.50;;;;;;5104869;28;21045;-80
2023/09/19 11:15:58;;;;;;;6.87;3.13;;;20.60;68.60;;;;;;5108772;28;20450;-79
2023/09/19 11:18:56;;;;;;;7.57;2.97;;;20.60;68.60;;;;;;5107175;28;20467;-79
2023/09/19 11:21:54;;;;;;;7.43;3.00;;;20.70;68.70;;;;;;5110591;28;20462;-79
2023/09/19 11:24:31;;;;;;;8.27;3.13;;;20.80;68.20;;;;;;5106713;28;20478;-79
2023/09/19 11:27:13;;;;;;;6.70;3.07;;;20.70;67.80;;;;;;5107072;28;20451;-79
2023/09/19 11:29:42;;;;;;;6.77;3.00;;;20.70;67.60;;;;;;5108910;28;20448;-79
2023/09/19 11:32:10;;;;;;;7.47;2.80;;;20.70;67.60;;;;;;5108076;28;20476;-79
2023/09/19 11:34:50;;;;;;;7.33;2.47;;;20.70;67.40;;;;;;5111081;28;20436;-79
2023/09/19 11:38:10;;;;;;;7.07;2.63;;;20.80;67.30;;;;;;5091978;28;20448;-79
2023/09/19 11:40:39;;;;;;;6.63;2.63;;;20.80;67.00;;;;;;5094683;28;20812;-79
2023/09/19 11:43:33;;;;;;;8.70;3.13;;;20.80;67.10;;;;;;5093665;28;20468;-77
2023/09/19 11:46:08;;;;;;;7.13;2.63;;;20.90;66.80;;;;;;5109719;28;20878;-78
2023/09/19 11:48:37;;;;;;;6.93;2.70;;;20.90;66.70;;;;;;5098481;28;20463;-78
2023/09/19 11:51:26;;;;;;;9.07;2.50;;;20.80;66.60;;;;;;5113306;28;20483;-78
2023/09/19 11:53:56;;;;;;;5.53;1.90;;;20.90;66.40;;;;;;5107954;28;20456;-78
2023/09/19 11:56:27;;;;;;;6.87;2.43;;;20.90;66.30;;;;;;5092168;28;20459;-79
2023/09/19 11:58:57;;;;;;;6.30;2.10;;;20.90;66.20;;;;;;5102583;28;20457;-79
2023/09/19 12:01:35;;;;;;;7.50;2.40;;;21.00;66.20;;;;;;5101172;28;20475;-79
2023/09/19 12:04:04;;;;;;;6.47;2.20;;;21.00;66.00;;;;;;5108267;28;20483;-79
2023/09/19 12:06:35;;;;;;;9.47;2.10;;;21.00;66.10;;;;;;5088407;28;20526;-79
2023/09/19 12:09:07;;;;;;;7.20;2.10;;;21.00;66.00;;;;;;5100053;28;20457;-79
2023/09/19 12:11:43;;;;;;;6.80;1.90;;;21.10;66.00;;;;;;5109455;28;20455;-79
2023/09/19 12:14:13;;;;;;;5.13;1.80;;;21.10;65.90;;;;;;5108939;28;20451;-78
2023/09/19 12:16:55;;;;;;;6.70;2.40;;;21.10;66.00;;;;;;5105923;28;20463;-78
2023/09/19 12:19:24;;;;;;;5.70;2.27;;;21.20;66.10;;;;;;5103165;28;20460;-78
2023/09/19 12:21:59;;;;;;;8.73;2.30;;;21.20;66.10;;;;;;5091456;28;20460;-78
2023/09/19 12:24:29;;;;;;;5.50;2.20;;;21.30;66.20;;;;;;5108660;28;20554;-78
2023/09/19 12:27:04;;;;;;;7.50;2.30;;;21.30;66.20;;;;;;5107425;28;20540;-78
2023/09/19 12:29:42;;;;;;;5.50;1.73;;;21.30;66.20;;;;;;5108050;28;20456;-78
2023/09/19 12:32:10;;;;;;;8.37;2.60;;;21.30;66.10;;;;;;5103416;28;20468;-79
2023/09/19 12:34:42;;;;;;;8.90;1.83;;;21.30;66.00;;;;;;5106962;28;20501;-78
2023/09/19 12:37:15;;;;;;;6.10;2.07;;;21.40;66.10;;;;;;5109857;27;20538;-78
2023/09/19 12:39:48;;;;;;;7.80;2.17;;;21.40;65.90;;;;;;5109689;28;20505;-78
2023/09/19 12:42:18;;;;;;;5.60;1.70;;;21.30;65.80;;;;;;5106418;28;20471;-78
2023/09/19 12:44:47;;;;;;;6.53;2.00;;;21.40;65.90;;;;;;5108411;28;20464;-78
2023/09/19 12:47:19;;;;;;;7.50;1.63;;;21.40;65.90;;;;;;5090520;28;20483;-79
2023/09/19 12:50:07;;;;;;;5.47;1.63;;;21.50;65.70;;;;;;5101535;28;20516;-78
2023/09/19 12:52:38;;;;;;;4.30;1.37;;;21.50;65.10;;;;;;5089416;28;20492;-78
2023/09/19 12:55:07;;;;;;;6.57;1.77;;;21.50;65.10;;;;;;5101660;28;20954;-79
2023/09/19 12:57:35;;;;;;;7.20;1.77;;;21.50;64.60;;;;;;5106649;28;20547;-79
2023/09/19 13:00:05;;;;;;;8.93;1.77;;;21.50;64.20;;;;;;5108766;28;20448;-79
2023/09/19 13:02:33;;;;;;;5.50;1.60;;;21.50;64.20;;;;;;5103037;28;20460;-79
2023/09/19 13:05:06;;;;;;;7.50;1.77;;;21.50;64.00;;;;;;5104365;28;20567;-78
2023/09/19 13:07:46;;;;;;;5.63;1.93;;;21.50;64.10;;;;;;5107189;28;20483;-79
2023/09/19 13:10:16;;;;;;;5.60;2.00;;;21.50;63.90;;;;;;5090441;28;20884;-78
2023/09/19 13:12:47;;;;;;;8.77;2.17;;;21.50;63.90;;;;;;5090511;28;20568;-78
2023/09/19 13:15:19;;;;;;;5.60;1.53;;;21.60;63.80;;;;;;5107385;28;20540;-79